createdAt,value
2023-08-15T00:02:09.150Z,17.95
2023-08-15T00:05:13.481Z,17.98
2023-08-15T00:08:17.408Z,17.90
2023-08-15T00:11:25.534Z,17.91
2023-08-15T00:14:30.132Z,17.93
2023-08-15T00:17:34.457Z,17.94
2023-08-15T00:20:38.899Z,18.00
2023-08-15T00:23:43.388Z,18.03
2023-08-15T00:26:47.484Z,18.01
2023-08-15T00:29:51.839Z,18.04
2023-08-15T00:32:56.181Z,18.03
2023-08-15T00:36:00.841Z,18.04
2023-08-15T00:39:05.611Z,18.01
2023-08-15T00:42:09.627Z,18.00
2023-08-15T00:45:13.990Z,17.94
2023-08-15T00:48:21.317Z,17.88
2023-08-15T00:51:28.033Z,17.86
2023-08-15T00:54:32.888Z,17.87
2023-08-15T00:57:37.920Z,17.89
2023-08-15T01:00:53.153Z,17.89
2023-08-15T01:03:58.771Z,17.89
2023-08-15T01:07:03.990Z,17.93
2023-08-15T01:10:09.560Z,17.91
2023-08-15T01:13:29.064Z,17.98
2023-08-15T01:16:41.462Z,18.06
2023-08-15T01:19:50.923Z,18.14
2023-08-15T01:23:01.178Z,18.20
2023-08-15T01:26:05.392Z,18.24
2023-08-15T01:29:10.048Z,18.22
2023-08-15T01:32:48.828Z,18.17
2023-08-15T01:36:13.108Z,18.11
2023-08-15T01:39:28.479Z,18.08
2023-08-15T01:42:33.787Z,18.02
2023-08-15T01:45:38.173Z,18.00
2023-08-15T01:48:43.522Z,17.96
2023-08-15T01:51:47.909Z,17.90
2023-08-15T01:54:52.654Z,17.89
2023-08-15T01:57:56.909Z,17.89
2023-08-15T02:01:04.014Z,17.97
2023-08-15T02:04:08.263Z,17.94
2023-08-15T02:07:12.560Z,17.98
2023-08-15T02:10:17.318Z,18.00
2023-08-15T02:13:22.728Z,18.06
2023-08-15T02:16:27.009Z,18.16
2023-08-15T02:19:31.117Z,18.21
2023-08-15T02:22:35.523Z,18.23
2023-08-15T02:25:39.868Z,18.30
2023-08-15T02:28:44.519Z,18.34
2023-08-15T02:31:49.164Z,18.38
2023-08-15T02:34:53.593Z,18.39
2023-08-15T02:37:57.747Z,18.40
2023-08-15T02:41:02.616Z,18.52
2023-08-15T02:44:07.216Z,18.53
2023-08-15T02:47:11.691Z,18.48
2023-08-15T02:50:16.292Z,18.48
2023-08-15T02:53:20.779Z,18.51
2023-08-15T02:56:25.227Z,18.54
2023-08-15T02:59:29.744Z,18.53
2023-08-15T03:02:34.046Z,18.53
2023-08-15T03:05:39.595Z,18.50
2023-08-15T03:08:44.257Z,18.58
2023-08-15T03:11:48.797Z,18.56
2023-08-15T03:14:53.482Z,18.51
2023-08-15T03:17:58.986Z,18.48
2023-08-15T03:21:06.342Z,18.55
2023-08-15T03:24:11.089Z,18.51
2023-08-15T03:27:15.177Z,18.53
2023-08-15T03:30:19.455Z,18.49
2023-08-15T03:33:25.326Z,18.52
2023-08-15T03:36:29.800Z,18.60
2023-08-15T03:39:34.535Z,18.58
2023-08-15T03:42:38.902Z,18.48
2023-08-15T03:45:43.375Z,18.53
2023-08-15T03:48:48.129Z,18.62
2023-08-15T03:51:52.663Z,18.65
2023-08-15T03:54:57.013Z,18.68
2023-08-15T03:58:01.175Z,18.72
2023-08-15T04:01:05.726Z,18.75
2023-08-15T04:04:09.994Z,18.77
2023-08-15T04:07:14.332Z,18.77
2023-08-15T04:10:18.912Z,18.77
2023-08-15T04:13:23.130Z,18.76
2023-08-15T04:16:27.395Z,18.78
2023-08-15T04:19:31.681Z,18.80
2023-08-15T04:22:37.687Z,18.81
2023-08-15T04:25:42.404Z,18.82
2023-08-15T04:28:47.957Z,18.79
2023-08-15T04:31:52.349Z,18.78
2023-08-15T04:34:56.741Z,18.76
2023-08-15T04:38:01.364Z,18.78
2023-08-15T04:41:07.158Z,18.78
2023-08-15T04:44:11.840Z,18.76
2023-08-15T04:47:17.479Z,18.80
2023-08-15T04:50:21.734Z,18.86
2023-08-15T04:53:26.021Z,18.87
2023-08-15T04:56:30.266Z,18.89
2023-08-15T04:59:34.882Z,18.94
2023-08-15T05:02:40.358Z,18.95
2023-08-15T05:05:44.986Z,18.94
2023-08-15T05:08:49.098Z,18.99
2023-08-15T05:11:53.184Z,19.02
2023-08-15T05:14:58.352Z,19.08
2023-08-15T05:18:02.922Z,19.11
2023-08-15T05:21:07.308Z,19.12
2023-08-15T05:24:11.670Z,19.09
2023-08-15T05:27:15.919Z,19.14
2023-08-15T05:30:20.299Z,19.21
2023-08-15T05:33:25.238Z,19.25
2023-08-15T05:36:30.139Z,19.26
2023-08-15T05:39:34.240Z,19.28
2023-08-15T05:42:38.434Z,19.30
2023-08-15T05:45:45.071Z,19.32
2023-08-15T05:48:49.405Z,19.35
2023-08-15T05:51:55.100Z,19.36
2023-08-15T05:54:59.598Z,19.38
2023-08-15T05:58:04.558Z,19.39
2023-08-15T06:01:09.583Z,19.41
2023-08-15T06:04:14.183Z,19.43
2023-08-15T06:07:19.745Z,19.44
2023-08-15T06:10:25.432Z,19.46
2023-08-15T06:13:30.428Z,19.47
2023-08-15T06:16:35.265Z,19.53
2023-08-15T06:19:40.029Z,19.59
2023-08-15T06:22:44.376Z,19.62
2023-08-15T06:25:49.024Z,19.66
2023-08-15T06:28:53.503Z,19.69
2023-08-15T06:31:59.703Z,19.73
2023-08-15T06:35:07.316Z,19.83
2023-08-15T06:38:12.227Z,19.93
2023-08-15T06:41:16.793Z,20.00
2023-08-15T06:44:22.280Z,20.09
2023-08-15T06:47:26.688Z,20.18
2023-08-15T06:50:31.676Z,20.25
2023-08-15T06:53:36.830Z,20.36
2023-08-15T06:56:41.186Z,20.44
2023-08-15T06:59:45.272Z,20.48
2023-08-15T07:02:49.694Z,20.49
2023-08-15T07:05:54.889Z,20.48
2023-08-15T07:09:02.790Z,20.43
2023-08-15T07:12:07.824Z,20.45
2023-08-15T07:15:12.119Z,20.45
2023-08-15T07:18:16.371Z,20.49
2023-08-15T07:21:20.770Z,20.51
2023-08-15T07:24:24.988Z,20.49
2023-08-15T07:27:29.385Z,20.44
2023-08-15T07:30:34.108Z,20.46
2023-08-15T07:33:38.282Z,20.47
2023-08-15T07:36:42.778Z,20.50
2023-08-15T07:39:47.025Z,20.48
2023-08-15T07:42:54.131Z,20.53
2023-08-15T07:45:58.998Z,20.55
2023-08-15T07:49:03.238Z,20.55
2023-08-15T07:52:07.559Z,20.56
2023-08-15T07:55:12.628Z,20.54
2023-08-15T07:58:17.455Z,20.57
2023-08-15T08:01:22.013Z,20.56
2023-08-15T08:04:26.804Z,20.54
2023-08-15T08:07:32.417Z,20.60
2023-08-15T08:10:37.740Z,20.61
2023-08-15T08:13:42.178Z,20.64
2023-08-15T08:16:46.611Z,20.64
2023-08-15T08:19:50.847Z,20.67
2023-08-15T08:22:55.071Z,20.71
2023-08-15T08:25:59.616Z,20.71
2023-08-15T08:29:03.967Z,20.69
2023-08-15T08:32:08.404Z,20.67
2023-08-15T08:35:16.510Z,20.62
2023-08-15T08:38:20.997Z,20.57
2023-08-15T08:41:25.734Z,20.58
2023-08-15T08:44:31.088Z,20.54
2023-08-15T08:47:42.806Z,20.48
2023-08-15T08:50:47.363Z,20.45
2023-08-15T08:53:55.387Z,20.42
2023-08-15T08:57:01.586Z,20.42
2023-08-15T09:00:11.025Z,20.44
2023-08-15T09:03:15.801Z,20.49
2023-08-15T09:06:20.987Z,20.62
2023-08-15T09:09:25.485Z,20.75
2023-08-15T09:12:37.394Z,20.92
2023-08-15T09:15:48.703Z,21.16
2023-08-15T09:18:53.141Z,21.27
2023-08-15T09:21:57.277Z,21.36
2023-08-15T09:25:01.738Z,21.25
2023-08-15T09:28:09.263Z,21.33
2023-08-15T09:31:13.962Z,21.40
2023-08-15T09:34:19.726Z,21.40
2023-08-15T09:37:25.305Z,21.38
2023-08-15T09:40:30.184Z,21.42
2023-08-15T09:43:34.773Z,21.52
2023-08-15T09:46:40.290Z,21.49
2023-08-15T09:49:44.793Z,21.45
2023-08-15T09:52:52.891Z,21.37
2023-08-15T09:55:58.026Z,21.36
2023-08-15T09:59:02.345Z,21.57
2023-08-15T10:02:24.936Z,21.66
2023-08-15T10:05:34.979Z,21.71
2023-08-15T10:08:43.405Z,21.68
2023-08-15T10:11:49.278Z,21.62
2023-08-15T10:14:56.274Z,21.75
2023-08-15T10:18:02.227Z,21.72
2023-08-15T10:21:10.374Z,21.58
2023-08-15T10:24:15.222Z,21.60
2023-08-15T10:27:21.700Z,21.63
2023-08-15T10:30:37.586Z,21.49
2023-08-15T10:33:43.173Z,21.40
2023-08-15T10:36:47.549Z,21.32
2023-08-15T10:40:14.391Z,21.13
2023-08-15T10:43:18.976Z,21.07
2023-08-15T10:46:28.870Z,21.05
2023-08-15T10:49:33.403Z,21.01
2023-08-15T10:52:41.102Z,20.96
2023-08-15T10:55:48.182Z,20.84
2023-08-15T10:58:53.072Z,20.78
2023-08-15T11:01:57.819Z,20.77
2023-08-15T11:05:01.970Z,20.80
2023-08-15T11:08:21.309Z,20.81
2023-08-15T11:11:26.152Z,20.91
2023-08-15T11:14:30.545Z,20.99
2023-08-15T11:17:35.014Z,20.94
2023-08-15T11:20:40.333Z,20.98
2023-08-15T11:23:48.548Z,20.94
2023-08-15T11:26:56.319Z,20.95
2023-08-15T11:30:01.207Z,20.84
2023-08-15T11:33:06.047Z,20.77
2023-08-15T11:36:13.691Z,20.77
2023-08-15T11:39:19.067Z,20.78
2023-08-15T11:42:24.135Z,20.76
2023-08-15T11:45:33.225Z,20.87
2023-08-15T11:48:37.945Z,21.18
2023-08-15T11:51:42.128Z,21.31
2023-08-15T11:54:47.452Z,21.51
2023-08-15T11:57:53.257Z,21.64
2023-08-15T12:01:03.848Z,21.59
2023-08-15T12:04:08.900Z,21.66
2023-08-15T12:07:13.536Z,21.80
2023-08-15T12:10:18.464Z,21.89
2023-08-15T12:13:39.423Z,21.88
2023-08-15T12:16:44.359Z,21.97
2023-08-15T12:19:48.690Z,22.02
2023-08-15T12:22:53.197Z,22.34
2023-08-15T12:25:57.466Z,22.49
2023-08-15T12:29:02.042Z,22.51
2023-08-15T12:32:06.667Z,22.78
2023-08-15T12:35:11.041Z,22.89
2023-08-15T12:38:15.703Z,22.94
2023-08-15T12:41:19.863Z,22.94
2023-08-15T12:44:24.091Z,22.89
2023-08-15T12:47:29.495Z,22.80
2023-08-15T12:50:35.353Z,22.90
2023-08-15T12:53:39.973Z,22.69
2023-08-15T12:56:44.108Z,22.55
2023-08-15T12:59:49.182Z,22.43
2023-08-15T13:02:53.900Z,22.31
2023-08-15T13:05:58.962Z,22.21
2023-08-15T13:09:03.886Z,22.12
2023-08-15T13:12:08.858Z,22.06
2023-08-15T13:15:13.003Z,22.04
2023-08-15T13:18:19.265Z,22.06
2023-08-15T13:21:24.404Z,22.18
2023-08-15T13:24:29.029Z,22.19
2023-08-15T13:27:33.683Z,22.22
2023-08-15T13:30:38.815Z,22.17
2023-08-15T13:33:44.396Z,22.18
2023-08-15T13:36:48.643Z,22.18
2023-08-15T13:39:54.779Z,22.20
2023-08-15T13:43:00.339Z,22.22
2023-08-15T13:46:08.905Z,22.30
2023-08-15T13:49:13.224Z,22.35
2023-08-15T13:52:17.505Z,22.32
2023-08-15T13:55:22.372Z,22.27
2023-08-15T13:58:27.574Z,22.26
2023-08-15T14:01:33.478Z,22.24
2023-08-15T14:04:37.983Z,22.28
2023-08-15T14:07:42.701Z,22.33
2023-08-15T14:10:47.508Z,22.27
2023-08-15T14:13:52.042Z,22.22
2023-08-15T14:16:56.283Z,22.18
2023-08-15T14:20:00.719Z,22.26
2023-08-15T14:23:06.822Z,22.28
2023-08-15T14:26:11.903Z,22.24
2023-08-15T14:29:16.571Z,22.29
2023-08-15T14:32:21.394Z,22.27
2023-08-15T14:35:25.790Z,22.29
2023-08-15T14:38:30.076Z,22.34
2023-08-15T14:41:34.575Z,22.29
2023-08-15T14:44:38.871Z,22.32
2023-08-15T14:47:43.368Z,22.45
2023-08-15T14:50:48.697Z,22.43
2023-08-15T14:53:54.093Z,22.29
2023-08-15T14:56:58.663Z,22.16
2023-08-15T15:00:05.742Z,22.04
2023-08-15T15:03:10.199Z,21.89
2023-08-15T15:06:16.203Z,21.78
2023-08-15T15:09:20.660Z,21.69
2023-08-15T15:12:24.867Z,21.61
2023-08-15T15:15:46.018Z,21.58
2023-08-15T15:18:53.800Z,21.43
2023-08-15T15:21:58.401Z,21.40
2023-08-15T15:25:04.571Z,21.39
2023-08-15T15:28:08.941Z,21.42
2023-08-15T15:31:13.509Z,21.51
2023-08-15T15:34:25.272Z,21.46
2023-08-15T15:37:30.515Z,21.33
2023-08-15T15:40:34.756Z,21.36
2023-08-15T15:43:39.285Z,21.40
2023-08-15T15:46:53.904Z,21.34
2023-08-15T15:50:00.254Z,21.30
2023-08-15T15:53:05.923Z,21.20
2023-08-15T15:56:10.468Z,21.18
2023-08-15T15:59:14.846Z,21.21
2023-08-15T16:02:19.599Z,21.09
2023-08-15T16:05:24.507Z,21.01
2023-08-15T16:08:29.362Z,20.91
2023-08-15T16:11:33.969Z,20.92
2023-08-15T16:14:38.560Z,21.00
2023-08-15T16:17:43.810Z,20.91
2023-08-15T16:20:48.156Z,20.82
2023-08-15T16:23:52.538Z,20.75
2023-08-15T16:26:56.759Z,20.54
2023-08-15T16:30:14.942Z,20.55
2023-08-15T16:33:22.308Z,20.43
2023-08-15T16:36:26.929Z,20.45
2023-08-15T16:39:31.528Z,20.49
2023-08-15T16:42:35.881Z,20.46
2023-08-15T16:45:41.332Z,20.34
2023-08-15T16:48:45.997Z,20.33
2023-08-15T16:51:50.201Z,20.40
2023-08-15T16:54:54.584Z,20.43
2023-08-15T16:58:00.215Z,20.41
2023-08-15T17:01:04.763Z,20.40
2023-08-15T17:04:09.343Z,20.41
2023-08-15T17:07:13.626Z,20.42
2023-08-15T17:10:18.709Z,20.46
2023-08-15T17:13:23.139Z,20.44
2023-08-15T17:16:28.828Z,20.47
2023-08-15T17:19:33.305Z,20.41
2023-08-15T17:22:38.252Z,20.36
2023-08-15T17:25:42.817Z,20.28
2023-08-15T17:28:47.378Z,20.20
2023-08-15T17:31:53.520Z,20.15
2023-08-15T17:34:58.188Z,20.10
2023-08-15T17:38:02.686Z,20.01
2023-08-15T17:41:07.523Z,19.98
2023-08-15T17:44:11.898Z,19.88
2023-08-15T17:47:16.115Z,19.94
2023-08-15T17:50:20.631Z,19.90
2023-08-15T17:53:29.204Z,19.88
2023-08-15T17:56:34.226Z,19.80
2023-08-15T17:59:38.711Z,19.76
2023-08-15T18:02:43.093Z,19.72
2023-08-15T18:05:48.730Z,19.77
2023-08-15T18:08:53.012Z,19.74
2023-08-15T18:11:57.455Z,19.80
2023-08-15T18:15:01.893Z,19.82
2023-08-15T18:18:06.215Z,19.87
2023-08-15T18:21:10.459Z,19.85
2023-08-15T18:24:15.055Z,19.83
2023-08-15T18:27:21.034Z,19.79
2023-08-15T18:30:28.522Z,19.72
2023-08-15T18:33:34.130Z,19.66
2023-08-15T18:36:38.801Z,19.54
2023-08-15T18:39:43.331Z,19.54
2023-08-15T18:42:47.893Z,19.48
2023-08-15T18:45:53.407Z,19.47
2023-08-15T18:48:57.864Z,19.53
2023-08-15T18:52:02.194Z,19.56
2023-08-15T18:55:07.550Z,19.48
2023-08-15T18:58:12.274Z,19.47
2023-08-15T19:01:16.731Z,19.42
2023-08-15T19:04:21.764Z,19.38
2023-08-15T19:07:30.304Z,19.25
2023-08-15T19:10:34.876Z,19.14
2023-08-15T19:13:39.238Z,19.03
2023-08-15T19:16:43.593Z,18.95
2023-08-15T19:19:47.774Z,19.02
2023-08-15T19:22:52.075Z,19.11
2023-08-15T19:25:56.329Z,18.94
2023-08-15T19:29:01.015Z,18.83
2023-08-15T19:32:05.893Z,18.83
2023-08-15T19:35:10.629Z,18.91
2023-08-15T19:38:15.197Z,18.82
2023-08-15T19:41:19.554Z,18.68
2023-08-15T19:44:23.943Z,18.66
2023-08-15T19:47:28.683Z,18.63
2023-08-15T19:50:33.701Z,18.54
2023-08-15T19:53:38.432Z,18.45
2023-08-15T19:56:42.926Z,18.41
2023-08-15T19:59:47.152Z,18.33
2023-08-15T20:02:51.502Z,18.33
2023-08-15T20:05:56.042Z,18.45
2023-08-15T20:09:00.310Z,18.43
2023-08-15T20:12:05.507Z,18.29
2023-08-15T20:15:10.718Z,18.29
2023-08-15T20:18:17.114Z,18.25
2023-08-15T20:21:22.373Z,18.22
2023-08-15T20:24:27.337Z,18.32
2023-08-15T20:27:31.588Z,18.42
2023-08-15T20:30:36.368Z,18.39
2023-08-15T20:33:40.680Z,18.39
2023-08-15T20:36:44.963Z,18.40
2023-08-15T20:39:49.743Z,18.37
2023-08-15T20:42:54.560Z,18.33
2023-08-15T20:45:59.033Z,18.30
2023-08-15T20:49:04.751Z,18.27
2023-08-15T20:52:11.010Z,18.24
2023-08-15T20:55:15.479Z,18.17
2023-08-15T20:58:19.957Z,18.11
2023-08-15T21:01:24.713Z,18.08
2023-08-15T21:04:29.243Z,18.03
2023-08-15T21:07:33.670Z,18.01
2023-08-15T21:10:38.130Z,17.95
2023-08-15T21:13:42.817Z,17.99
2023-08-15T21:16:48.013Z,17.93
2023-08-15T21:19:52.506Z,17.86
2023-08-15T21:22:57.038Z,17.79
2023-08-15T21:26:01.711Z,17.78
2023-08-15T21:29:06.148Z,17.75
2023-08-15T21:32:10.840Z,17.74
2023-08-15T21:35:15.298Z,17.71
2023-08-15T21:38:20.168Z,17.71
2023-08-15T21:41:24.241Z,17.67
2023-08-15T21:44:28.760Z,17.63
2023-08-15T21:47:33.380Z,17.64
2023-08-15T21:50:38.560Z,17.62
2023-08-15T21:53:43.193Z,17.57
2023-08-15T21:56:47.876Z,17.55
2023-08-15T21:59:52.098Z,17.53
2023-08-15T22:02:58.317Z,17.50
2023-08-15T22:06:02.890Z,17.45
2023-08-15T22:09:07.661Z,17.40
2023-08-15T22:12:11.957Z,17.37
2023-08-15T22:15:18.524Z,17.35
2023-08-15T22:18:23.582Z,17.36
2023-08-15T22:21:28.188Z,17.34
2023-08-15T22:24:33.106Z,17.32
2023-08-15T22:27:37.504Z,17.28
2023-08-15T22:30:42.225Z,17.25
2023-08-15T22:33:46.577Z,17.24
2023-08-15T22:36:52.148Z,17.22
2023-08-15T22:39:56.854Z,17.17
2023-08-15T22:43:01.290Z,17.13
2023-08-15T22:46:05.775Z,17.08
2023-08-15T22:49:10.411Z,17.03
2023-08-15T22:52:14.784Z,17.06
2023-08-15T22:55:19.598Z,17.04
2023-08-15T22:58:23.977Z,17.01
2023-08-15T23:01:28.394Z,16.96
2023-08-15T23:04:32.857Z,16.95
2023-08-15T23:07:37.496Z,16.93
2023-08-15T23:10:42.003Z,16.96
2023-08-15T23:13:46.469Z,16.95
2023-08-15T23:16:50.892Z,16.93
2023-08-15T23:19:55.178Z,16.90
2023-08-15T23:22:59.093Z,16.83
2023-08-15T23:26:03.948Z,16.80
2023-08-15T23:29:08.902Z,16.76
2023-08-15T23:32:13.166Z,16.75
2023-08-15T23:35:18.100Z,16.75
2023-08-15T23:38:22.457Z,16.71
2023-08-15T23:41:27.950Z,16.64
2023-08-15T23:44:32.190Z,16.65
2023-08-15T23:47:36.563Z,16.67
2023-08-15T23:50:41.087Z,16.71
2023-08-15T23:53:48.242Z,16.73
2023-08-15T23:56:52.469Z,16.75
2023-08-15T23:59:56.921Z,16.79
